Time;durP1;ratioP1;P1;durP2;ratioP2;P2;SDS_P1;SDS_P2;PMS_P1;PMS_P2;Temp;Humidity;BMP_temperature;BMP_pressure;BME280_temperature;BME280_humidity;BME280_pressure;Samples;Min_cycle;Max_cycle;Signal;HPM_P1;HPM_P2
2022/07/19 00:02:24;;;;;;;14.00;4.53;;;20.40;98.20;;;;;;4914083;28;205506;-84
2022/07/19 00:04:51;;;;;;;11.13;4.50;;;20.30;98.40;;;;;;4990021;28;20050;-84
2022/07/19 00:07:17;;;;;;;9.98;4.28;;;20.30;98.40;;;;;;4932475;28;254640;-84
2022/07/19 00:09:43;;;;;;;11.55;4.60;;;20.30;98.50;;;;;;4970189;28;20054;-84
2022/07/19 00:12:12;;;;;;;14.80;4.75;;;20.30;98.50;;;;;;4958802;28;220093;-84
2022/07/19 00:14:38;;;;;;;9.45;4.53;;;20.20;98.60;;;;;;4974651;28;20062;-84
2022/07/19 00:17:05;;;;;;;10.20;4.82;;;20.20;98.60;;;;;;4942443;28;232706;-83
2022/07/19 00:19:34;;;;;;;10.02;4.65;;;20.20;98.60;;;;;;4987490;28;20058;-84
2022/07/19 00:22:04;;;;;;;10.02;4.55;;;20.20;98.70;;;;;;4946210;28;235764;-83
2022/07/19 00:24:30;;;;;;;11.10;4.70;;;20.10;98.60;;;;;;4994434;28;20069;-83
2022/07/19 00:26:56;;;;;;;10.95;4.53;;;20.10;98.60;;;;;;4930106;28;212592;-84
2022/07/19 00:29:22;;;;;;;10.88;4.63;;;20.10;98.70;;;;;;4971887;28;20054;-85
2022/07/19 00:31:48;;;;;;;9.73;4.40;;;20.10;98.70;;;;;;4963411;28;229683;-85
2022/07/19 00:34:15;;;;;;;12.15;4.50;;;20.00;98.60;;;;;;4999382;28;20061;-84
2022/07/19 00:36:42;;;;;;;10.65;4.38;;;20.00;98.70;;;;;;4939652;28;190965;-84
2022/07/19 00:39:08;;;;;;;11.90;4.60;;;20.00;98.70;;;;;;4967870;28;20051;-85
2022/07/19 00:41:41;;;;;;;9.52;4.10;;;20.00;98.90;;;;;;4956656;28;206913;-85
2022/07/19 00:44:09;;;;;;;11.35;4.45;;;19.90;98.90;;;;;;4993824;28;20065;-82
2022/07/19 00:46:38;;;;;;;11.15;4.38;;;19.90;98.90;;;;;;4944030;28;209690;-84
2022/07/19 00:49:07;;;;;;;10.27;4.43;;;19.90;98.90;;;;;;4987670;28;20065;-84
2022/07/19 00:51:37;;;;;;;9.77;4.00;;;19.80;99.00;;;;;;4931253;28;214067;-84
2022/07/19 00:54:04;;;;;;;11.60;4.38;;;19.80;99.10;;;;;;4969375;28;20061;-84
2022/07/19 00:56:33;;;;;;;9.98;4.30;;;19.80;99.20;;;;;;4945452;28;224020;-85
2022/07/19 00:59:02;;;;;;;9.95;4.05;;;19.80;99.30;;;;;;4985704;28;20396;-84
2022/07/19 01:01:29;;;;;;;9.80;4.70;;;19.70;99.40;;;;;;4951831;28;110189;-84
2022/07/19 01:03:56;;;;;;;11.55;4.45;;;19.70;99.50;;;;;;4989932;28;20050;-83
2022/07/19 01:06:23;;;;;;;10.18;4.50;;;19.60;99.60;;;;;;4946254;28;205808;-84
2022/07/19 01:08:51;;;;;;;9.68;4.03;;;19.60;99.60;;;;;;4975714;28;20050;-83
2022/07/19 01:11:20;;;;;;;9.30;4.72;;;19.60;99.70;;;;;;4945188;28;209302;-84
2022/07/19 01:13:48;;;;;;;11.18;4.15;;;19.60;99.80;;;;;;4991558;28;20046;-82
2022/07/19 01:16:17;;;;;;;10.85;4.30;;;19.50;99.80;;;;;;4957819;28;215159;-83
2022/07/19 01:18:43;;;;;;;9.27;4.10;;;19.50;99.90;;;;;;4996339;28;20050;-84
2022/07/19 01:21:18;;;;;;;10.07;4.22;;;19.50;99.90;;;;;;4946331;28;206543;-85
2022/07/19 01:23:44;;;;;;;8.98;3.90;;;19.40;99.90;;;;;;4992834;28;20046;-85
2022/07/19 01:26:12;;;;;;;10.52;4.30;;;19.40;99.90;;;;;;4956940;28;142405;-83
2022/07/19 01:28:38;;;;;;;9.77;4.30;;;19.40;99.90;;;;;;4982859;28;20042;-84
2022/07/19 01:31:06;;;;;;;9.30;3.88;;;19.40;99.90;;;;;;4954695;28;205270;-85
2022/07/19 01:33:47;;;;;;;10.02;4.25;;;19.30;99.90;;;;;;4962482;28;20042;-84
2022/07/19 01:36:13;;;;;;;11.40;4.07;;;19.30;99.90;;;;;;4941566;28;212156;-83
2022/07/19 01:38:39;;;;;;;10.80;4.38;;;19.20;99.90;;;;;;4972086;28;20065;-84
2022/07/19 01:41:09;;;;;;;9.10;4.18;;;19.20;99.90;;;;;;4957703;28;204951;-84
2022/07/19 01:43:35;;;;;;;11.35;4.70;;;19.20;99.90;;;;;;4987066;28;20073;-84
2022/07/19 01:46:11;;;;;;;8.98;4.13;;;19.20;99.90;;;;;;4943437;28;205947;-84
2022/07/19 01:48:37;;;;;;;12.00;4.22;;;19.10;99.90;;;;;;5013433;28;20257;-84
2022/07/19 01:51:03;;;;;;;11.50;4.22;;;19.10;99.90;;;;;;4933071;28;150352;-83
2022/07/19 01:53:29;;;;;;;9.63;4.47;;;19.10;99.90;;;;;;4982196;28;20054;-84
2022/07/19 01:55:56;;;;;;;10.15;4.22;;;19.00;99.90;;;;;;4932166;28;222781;-84
2022/07/19 01:58:22;;;;;;;11.32;4.18;;;19.00;99.90;;;;;;4980445;28;20054;-84
2022/07/19 02:00:48;;;;;;;10.90;4.50;;;19.00;99.90;;;;;;4947931;28;219126;-84
2022/07/19 02:03:14;;;;;;;12.52;4.13;;;18.90;99.90;;;;;;4976509;28;20061;-84
2022/07/19 02:05:40;;;;;;;11.75;4.25;;;18.90;99.90;;;;;;4955454;28;214265;-85
2022/07/19 02:08:06;;;;;;;9.18;4.40;;;18.90;99.90;;;;;;4991389;28;20051;-83
2022/07/19 02:10:33;;;;;;;9.40;4.35;;;18.80;99.90;;;;;;4931774;28;211148;-82
2022/07/19 02:12:59;;;;;;;9.35;4.32;;;18.80;99.90;;;;;;4984090;28;20794;-83
2022/07/19 02:15:28;;;;;;;10.70;4.15;;;18.80;99.90;;;;;;4974803;28;221940;-83
2022/07/19 02:17:55;;;;;;;9.45;4.55;;;18.80;99.90;;;;;;4948242;28;234646;-84
2022/07/19 02:20:22;;;;;;;9.38;4.07;;;18.70;99.90;;;;;;4961461;28;207822;-83
2022/07/19 02:22:48;;;;;;;13.32;4.90;;;18.70;99.90;;;;;;4955263;28;134019;-83
2022/07/19 02:25:15;;;;;;;11.05;4.50;;;18.70;99.90;;;;;;4981454;28;20515;-83
2022/07/19 02:27:41;;;;;;;10.85;4.30;;;18.70;99.90;;;;;;4942213;28;205904;-84
2022/07/19 02:30:12;;;;;;;11.32;4.35;;;18.70;99.90;;;;;;4978082;28;20050;-84
2022/07/19 02:32:39;;;;;;;11.13;4.90;;;18.70;99.90;;;;;;4954338;28;218087;-84
2022/07/19 02:35:10;;;;;;;11.55;4.60;;;18.70;99.90;;;;;;4992282;28;20054;-84
2022/07/19 02:37:38;;;;;;;10.27;4.25;;;18.60;99.90;;;;;;4922408;28;244737;-83
2022/07/19 02:40:04;;;;;;;10.38;4.82;;;18.60;99.90;;;;;;4974795;28;20424;-83
2022/07/19 02:42:32;;;;;;;12.50;4.82;;;18.60;99.90;;;;;;4936150;28;202204;-83
2022/07/19 02:44:58;;;;;;;10.52;4.15;;;18.50;99.90;;;;;;4975886;28;20062;-83
2022/07/19 02:47:24;;;;;;;13.07;4.72;;;18.50;99.90;;;;;;4918298;28;241062;-83
2022/07/19 02:49:54;;;;;;;11.82;4.53;;;18.50;99.90;;;;;;4977724;28;20050;-84
2022/07/19 02:52:20;;;;;;;14.35;4.55;;;18.50;99.90;;;;;;4950386;28;223416;-84
2022/07/19 02:54:46;;;;;;;11.02;4.38;;;18.50;99.90;;;;;;4995177;28;20061;-85
2022/07/19 02:57:12;;;;;;;10.98;4.38;;;18.40;99.90;;;;;;4915522;28;210742;-84
2022/07/19 02:59:38;;;;;;;10.50;4.90;;;18.40;99.90;;;;;;4992320;28;20490;-83
2022/07/19 03:02:07;;;;;;;12.65;4.72;;;18.30;99.90;;;;;;4936621;28;271153;-83
2022/07/19 03:04:34;;;;;;;12.98;4.55;;;18.30;99.90;;;;;;4976151;28;20504;-84
2022/07/19 03:07:00;;;;;;;10.20;4.40;;;18.30;99.90;;;;;;4945565;28;205116;-84
2022/07/19 03:09:26;;;;;;;10.93;4.53;;;18.30;99.90;;;;;;4994468;28;20081;-84
2022/07/19 03:11:52;;;;;;;12.55;4.90;;;18.30;99.90;;;;;;4946237;28;209393;-84
2022/07/19 03:14:18;;;;;;;10.05;4.65;;;18.30;99.90;;;;;;4989963;28;20050;-84
2022/07/19 03:16:47;;;;;;;12.05;4.22;;;18.30;99.90;;;;;;4936158;28;231965;-84
2022/07/19 03:19:13;;;;;;;12.45;5.13;;;18.30;99.90;;;;;;4986052;28;20050;-85
2022/07/19 03:21:39;;;;;;;11.27;4.63;;;18.20;99.90;;;;;;4946992;28;203748;-84
2022/07/19 03:24:06;;;;;;;10.82;4.70;;;18.20;99.90;;;;;;4995205;28;20046;-84
2022/07/19 03:26:33;;;;;;;10.45;4.70;;;18.20;99.90;;;;;;4947855;28;205814;-84
2022/07/19 03:28:59;;;;;;;11.35;4.43;;;18.20;99.90;;;;;;4994749;28;20072;-84
2022/07/19 03:31:25;;;;;;;12.75;4.80;;;18.20;99.90;;;;;;4957619;28;218773;-84
2022/07/19 03:33:52;;;;;;;11.93;5.00;;;18.20;99.90;;;;;;4994779;28;20054;-85
2022/07/19 03:36:18;;;;;;;11.75;4.70;;;18.20;99.90;;;;;;4960266;28;166227;-83
2022/07/19 03:38:44;;;;;;;10.90;4.72;;;18.20;99.90;;;;;;4966668;28;20057;-84
2022/07/19 03:41:11;;;;;;;15.85;4.95;;;18.20;99.90;;;;;;4942956;28;212588;-84
2022/07/19 03:43:38;;;;;;;10.73;4.78;;;18.20;99.90;;;;;;4989145;28;20066;-84
2022/07/19 03:46:04;;;;;;;10.93;4.60;;;18.10;99.90;;;;;;4948109;28;209404;-83
2022/07/19 03:48:30;;;;;;;13.40;4.80;;;18.10;99.90;;;;;;4986600;28;20058;-83
2022/07/19 03:50:56;;;;;;;10.68;4.53;;;18.10;99.90;;;;;;4953311;28;208863;-84
2022/07/19 03:53:24;;;;;;;13.13;4.50;;;18.10;99.90;;;;;;4978233;28;20065;-83
2022/07/19 03:55:50;;;;;;;11.63;5.13;;;18.20;99.90;;;;;;4929253;28;248479;-84
2022/07/19 03:58:16;;;;;;;10.70;4.65;;;18.20;99.90;;;;;;4972935;28;20061;-84
2022/07/19 04:00:43;;;;;;;9.77;4.55;;;18.20;99.90;;;;;;4925892;28;215373;-84
2022/07/19 04:03:09;;;;;;;13.57;5.43;;;18.20;99.90;;;;;;4961437;28;20058;-83
2022/07/19 04:05:35;;;;;;;10.53;4.80;;;18.20;99.90;;;;;;4952052;28;234151;-84
2022/07/19 04:08:04;;;;;;;13.65;4.88;;;18.20;99.90;;;;;;4964316;28;20065;-84
2022/07/19 04:10:33;;;;;;;13.98;4.80;;;18.30;99.90;;;;;;4947655;28;224426;-83
2022/07/19 04:13:00;;;;;;;10.45;5.00;;;18.30;99.90;;;;;;4975095;28;20077;-83
2022/07/19 04:15:26;;;;;;;9.57;4.68;;;18.30;99.90;;;;;;4968657;28;211882;-84
2022/07/19 04:17:53;;;;;;;11.95;4.82;;;18.40;99.90;;;;;;5009433;28;209220;-84
2022/07/19 04:20:19;;;;;;;10.50;4.75;;;18.40;99.90;;;;;;5007020;28;20061;-84
2022/07/19 04:22:45;;;;;;;12.02;5.32;;;18.40;99.90;;;;;;4956163;28;203890;-84
2022/07/19 04:25:12;;;;;;;11.40;5.00;;;18.40;99.90;;;;;;4998057;28;20099;-83
2022/07/19 04:27:38;;;;;;;10.70;5.10;;;18.50;99.90;;;;;;4911982;28;232018;-83
2022/07/19 04:30:05;;;;;;;10.27;4.80;;;18.50;99.90;;;;;;4992622;28;20061;-84
2022/07/19 04:32:33;;;;;;;11.02;4.68;;;18.50;99.90;;;;;;4954369;28;220266;-83
2022/07/19 04:35:00;;;;;;;10.18;4.78;;;18.50;99.90;;;;;;4997612;28;20050;-84
2022/07/19 04:37:27;;;;;;;10.23;4.30;;;18.60;99.90;;;;;;4937072;28;206769;-84
2022/07/19 04:39:53;;;;;;;11.57;4.90;;;18.70;99.90;;;;;;4975263;28;20368;-83
2022/07/19 04:42:22;;;;;;;11.45;4.63;;;18.70;99.90;;;;;;4944400;28;206580;-85
2022/07/19 04:44:48;;;;;;;10.75;4.25;;;18.70;99.90;;;;;;4997073;28;20058;-83
2022/07/19 04:47:15;;;;;;;10.32;4.13;;;18.80;99.90;;;;;;4918250;28;225469;-83
2022/07/19 04:49:41;;;;;;;12.55;4.32;;;18.80;99.90;;;;;;5000022;28;20068;-84
2022/07/19 04:52:07;;;;;;;10.27;4.57;;;18.90;99.90;;;;;;4942340;28;211230;-84
2022/07/19 04:54:33;;;;;;;10.60;3.88;;;18.90;99.90;;;;;;4989732;28;20061;-80
2022/07/19 04:57:01;;;;;;;14.02;4.60;;;19.00;99.90;;;;;;4936366;28;198188;-81
2022/07/19 04:59:28;;;;;;;12.07;4.57;;;19.10;99.90;;;;;;4995756;28;20061;-82
2022/07/19 05:01:57;;;;;;;10.90;4.82;;;19.10;99.90;;;;;;4951771;28;246636;-82
2022/07/19 05:04:23;;;;;;;10.02;4.40;;;19.20;99.90;;;;;;4996016;28;20533;-82
2022/07/19 05:06:56;;;;;;;10.93;4.80;;;19.30;99.90;;;;;;4943910;28;214325;-82
2022/07/19 05:09:24;;;;;;;11.70;4.53;;;19.40;99.90;;;;;;4997388;28;20528;-82
2022/07/19 05:11:54;;;;;;;10.32;4.47;;;19.50;99.90;;;;;;4956065;28;214076;-81
2022/07/19 05:14:23;;;;;;;11.55;5.00;;;19.50;99.90;;;;;;4987004;28;20058;-82
2022/07/19 05:16:50;;;;;;;9.93;4.55;;;19.60;99.90;;;;;;4942429;28;545907;-82
2022/07/19 05:19:17;;;;;;;11.07;4.80;;;19.70;99.90;;;;;;4998225;28;20050;-82
2022/07/19 05:21:43;;;;;;;11.93;4.50;;;19.80;99.90;;;;;;4954470;28;207940;-81
2022/07/19 05:24:09;;;;;;;12.88;4.95;;;19.90;99.90;;;;;;4995489;28;20050;-80
2022/07/19 05:26:35;;;;;;;9.63;4.43;;;20.00;99.90;;;;;;4948712;28;212330;-82
2022/07/19 05:29:05;;;;;;;13.77;5.22;;;20.10;99.90;;;;;;4989538;28;20058;-82
2022/07/19 05:31:31;;;;;;;12.10;5.07;;;20.20;99.90;;;;;;4955205;28;147124;-82
2022/07/19 05:33:57;;;;;;;11.15;4.45;;;20.30;99.90;;;;;;4992640;28;20412;-82
2022/07/19 05:36:23;;;;;;;10.70;4.78;;;20.40;99.90;;;;;;4949478;28;225800;-83
2022/07/19 05:38:50;;;;;;;10.30;4.28;;;20.50;99.90;;;;;;4985858;28;20050;-82
2022/07/19 05:41:16;;;;;;;13.73;4.55;;;20.60;99.70;;;;;;4951533;28;207885;-83
2022/07/19 05:43:43;;;;;;;10.98;4.97;;;20.70;99.60;;;;;;4989417;28;20404;-82
2022/07/19 05:46:09;;;;;;;13.05;4.55;;;20.70;99.40;;;;;;4954048;28;208428;-79
2022/07/19 05:48:36;;;;;;;11.93;4.60;;;20.90;99.30;;;;;;4984519;28;20054;-81
2022/07/19 05:51:02;;;;;;;11.38;4.38;;;21.00;99.10;;;;;;4959984;28;221998;-82
2022/07/19 05:53:28;;;;;;;9.95;4.60;;;21.10;98.90;;;;;;4999266;28;20046;-80
2022/07/19 05:55:55;;;;;;;9.73;4.38;;;21.20;98.70;;;;;;4955569;28;174164;-81
2022/07/19 05:58:22;;;;;;;12.77;4.60;;;21.40;98.60;;;;;;4994013;28;20068;-83
2022/07/19 06:03:33;;;;;;;17.08;4.30;;;21.60;98.40;;;;;;4988792;28;20512;-80
2022/07/19 06:06:02;;;;;;;10.63;4.20;;;21.70;98.10;;;;;;4940402;28;317791;-81
2022/07/19 06:08:28;;;;;;;10.02;4.60;;;22.00;97.90;;;;;;4999793;28;20045;-82
2022/07/19 06:10:54;;;;;;;10.20;4.47;;;22.20;97.70;;;;;;4957290;28;278802;-80
2022/07/19 06:13:20;;;;;;;10.80;4.22;;;22.50;97.60;;;;;;4992400;28;20059;-81
2022/07/19 06:15:50;;;;;;;9.95;4.47;;;22.70;97.30;;;;;;4962185;28;205134;-83
2022/07/19 06:18:17;;;;;;;17.02;4.65;;;22.90;97.10;;;;;;5005866;28;20056;-82
2022/07/19 06:20:46;;;;;;;10.17;4.47;;;23.20;96.70;;;;;;4954352;28;247763;-82
2022/07/19 06:23:12;;;;;;;10.75;4.40;;;23.40;96.20;;;;;;4993591;28;20054;-82
2022/07/19 06:25:41;;;;;;;9.97;4.33;;;23.60;95.80;;;;;;4951708;28;303996;-83
2022/07/19 06:28:08;;;;;;;11.05;4.35;;;23.80;95.60;;;;;;4973171;28;20051;-84
2022/07/19 06:30:35;;;;;;;9.98;4.20;;;23.90;95.10;;;;;;4961633;28;207220;-82
2022/07/19 06:33:01;;;;;;;10.98;4.78;;;24.20;94.90;;;;;;4982511;28;20051;-82
2022/07/19 06:35:28;;;;;;;10.60;4.10;;;24.40;94.70;;;;;;4980497;28;168737;-83
2022/07/19 06:37:54;;;;;;;9.23;4.30;;;24.50;94.40;;;;;;4984866;28;224682;-82
2022/07/19 06:40:20;;;;;;;10.52;4.03;;;24.70;93.80;;;;;;4988196;28;201625;-83
2022/07/19 06:42:46;;;;;;;10.70;4.20;;;24.90;93.50;;;;;;4951961;28;208083;-82
2022/07/19 06:45:15;;;;;;;9.68;3.63;;;25.10;93.10;;;;;;4992997;28;20061;-83
2022/07/19 06:47:41;;;;;;;10.63;3.70;;;25.30;92.90;;;;;;4923196;28;223009;-83
2022/07/19 06:50:08;;;;;;;10.07;3.88;;;25.60;92.50;;;;;;5002019;28;20047;-83
2022/07/19 06:52:34;;;;;;;10.55;3.80;;;25.70;92.10;;;;;;4944538;28;214423;-84
2022/07/19 06:55:00;;;;;;;9.52;3.78;;;25.90;91.70;;;;;;5008761;28;20056;-82
2022/07/19 06:57:26;;;;;;;11.50;4.00;;;26.10;91.20;;;;;;4940114;28;214964;-84
2022/07/19 06:59:52;;;;;;;9.68;3.75;;;26.30;90.60;;;;;;4998799;28;20057;-83
2022/07/19 07:02:18;;;;;;;11.13;4.13;;;26.50;90.60;;;;;;4946998;28;253402;-81
2022/07/19 07:04:45;;;;;;;10.70;4.00;;;26.80;90.50;;;;;;4997301;28;20061;-84
2022/07/19 07:07:11;;;;;;;8.70;3.28;;;26.90;89.60;;;;;;4958572;28;224116;-83
2022/07/19 07:09:37;;;;;;;12.30;3.63;;;27.20;88.60;;;;;;4986262;28;20413;-84
2022/07/19 07:12:03;;;;;;;10.68;3.88;;;27.40;86.80;;;;;;4931307;28;241528;-82
2022/07/19 07:14:30;;;;;;;9.45;3.63;;;27.60;86.30;;;;;;4969217;28;20155;-81
2022/07/19 07:16:57;;;;;;;9.55;3.83;;;27.80;85.70;;;;;;4921980;28;248067;-83
2022/07/19 07:19:23;;;;;;;11.65;3.45;;;28.00;84.00;;;;;;4967442;28;20392;-83
2022/07/19 07:21:49;;;;;;;10.38;3.88;;;28.30;83.30;;;;;;4900671;28;262148;-84
2022/07/19 07:24:15;;;;;;;9.45;3.40;;;28.50;81.70;;;;;;4954497;28;20055;-82
2022/07/19 07:26:41;;;;;;;10.60;3.50;;;28.60;80.00;;;;;;4944567;28;247043;-83
2022/07/19 07:29:08;;;;;;;11.93;3.25;;;28.80;79.90;;;;;;4970301;28;20061;-82
2022/07/19 07:31:34;;;;;;;9.95;3.40;;;29.10;78.80;;;;;;4924431;28;226646;-84
2022/07/19 07:34:00;;;;;;;9.20;3.30;;;29.30;76.80;;;;;;4969448;28;20213;-83
2022/07/19 07:36:26;;;;;;;11.38;3.90;;;29.60;75.70;;;;;;4950169;28;211285;-80
2022/07/19 07:38:52;;;;;;;10.23;3.05;;;29.80;74.40;;;;;;4958043;28;20054;-81
2022/07/19 07:41:18;;;;;;;11.55;3.10;;;30.00;73.20;;;;;;4918043;28;185865;-80
2022/07/19 07:43:45;;;;;;;7.78;2.80;;;30.20;71.80;;;;;;4966436;28;20065;-81
2022/07/19 07:46:18;;;;;;;10.13;3.47;;;30.50;71.30;;;;;;4906982;28;263634;-82
2022/07/19 07:48:44;;;;;;;8.70;3.08;;;30.70;70.40;;;;;;4986977;28;20057;-81
2022/07/19 07:51:10;;;;;;;9.85;3.05;;;30.90;68.80;;;;;;4942061;28;206574;-80
2022/07/19 07:53:38;;;;;;;9.68;3.00;;;31.10;67.90;;;;;;4966579;28;20058;-80
2022/07/19 07:56:04;;;;;;;8.32;2.90;;;31.30;67.60;;;;;;4937053;28;181289;-81
2022/07/19 07:58:30;;;;;;;8.27;2.88;;;31.50;65.10;;;;;;4982607;28;20069;-79
2022/07/19 08:00:57;;;;;;;9.57;2.83;;;31.70;64.80;;;;;;4942617;28;176472;-80
2022/07/19 08:03:24;;;;;;;9.02;2.78;;;31.90;64.40;;;;;;4978227;28;20058;-80
2022/07/19 08:05:50;;;;;;;10.27;2.70;;;32.00;61.60;;;;;;4955149;28;283137;-80
2022/07/19 08:08:17;;;;;;;8.82;2.63;;;32.10;63.20;;;;;;4993250;28;20050;-80
2022/07/19 08:10:44;;;;;;;8.98;2.80;;;32.40;62.60;;;;;;4951833;28;207938;-79
2022/07/19 08:13:10;;;;;;;9.35;2.88;;;32.60;62.00;;;;;;4998159;28;20054;-80
2022/07/19 08:15:38;;;;;;;10.38;2.92;;;32.90;60.70;;;;;;4934538;28;242627;-78
2022/07/19 08:18:05;;;;;;;8.50;2.70;;;33.20;60.20;;;;;;5008070;28;20046;-80
2022/07/19 08:20:31;;;;;;;8.95;2.67;;;33.30;59.00;;;;;;4946610;28;245935;-80
2022/07/19 08:22:57;;;;;;;8.07;2.55;;;33.40;57.30;;;;;;4978022;28;20416;-79
2022/07/19 08:25:23;;;;;;;8.93;2.45;;;33.40;57.00;;;;;;4979302;28;209213;-81
2022/07/19 08:27:49;;;;;;;8.32;2.72;;;33.60;56.80;;;;;;4947696;28;206120;-82
2022/07/19 08:30:16;;;;;;;9.38;2.30;;;33.90;56.30;;;;;;4989946;28;20046;-79
2022/07/19 08:32:42;;;;;;;10.65;2.42;;;34.10;55.60;;;;;;4941518;28;225308;-80
2022/07/19 08:35:09;;;;;;;8.65;2.40;;;34.30;55.90;;;;;;4993228;28;20062;-80
2022/07/19 08:37:35;;;;;;;7.97;2.55;;;34.50;54.60;;;;;;4950979;28;213775;-80
2022/07/19 08:40:04;;;;;;;8.38;2.25;;;34.80;54.00;;;;;;4995229;28;20054;-81
2022/07/19 08:42:30;;;;;;;9.70;2.22;;;34.90;52.40;;;;;;4941304;28;248658;-79
2022/07/19 08:45:00;;;;;;;9.38;2.92;;;35.10;52.20;;;;;;5001092;28;20059;-79
2022/07/19 08:47:27;;;;;;;9.45;2.30;;;35.30;52.20;;;;;;4947650;28;217616;-80
2022/07/19 08:49:54;;;;;;;9.43;2.40;;;35.50;51.50;;;;;;4997334;28;20062;-80
2022/07/19 08:52:21;;;;;;;7.50;2.30;;;35.70;50.90;;;;;;4954769;28;200900;-81
2022/07/19 08:54:47;;;;;;;8.45;2.20;;;35.90;51.20;;;;;;4990724;28;20058;-81
2022/07/19 09:00:00;;;;;;;9.10;2.10;;;36.20;50.70;;;;;;4991167;28;20065;-79
2022/07/19 09:02:27;;;;;;;6.40;2.10;;;36.50;49.80;;;;;;4951649;28;200048;-79
2022/07/19 09:05:05;;;;;;;8.18;2.20;;;36.70;49.10;;;;;;4979945;28;20573;-79
2022/07/19 09:07:31;;;;;;;10.43;2.17;;;36.80;46.50;;;;;;4923832;28;209967;-79
2022/07/19 09:10:20;;;;;;;8.70;2.25;;;36.90;48.60;;;;;;4997075;28;20070;-81
2022/07/19 09:13:00;;;;;;;10.38;2.20;;;37.10;47.10;;;;;;4958629;28;180686;-80
2022/07/19 09:15:40;;;;;;;8.20;2.05;;;37.10;46.90;;;;;;4963762;28;173837;-82
2022/07/19 09:18:14;;;;;;;10.10;2.08;;;37.10;44.80;;;;;;4961939;28;210348;-82
2022/07/19 09:20:41;;;;;;;9.77;2.10;;;37.10;46.00;;;;;;4934778;28;209439;-81
2022/07/19 09:23:08;;;;;;;6.35;1.70;;;37.40;45.50;;;;;;4979671;28;20050;-82
2022/07/19 09:25:44;;;;;;;8.70;2.10;;;37.60;45.00;;;;;;4940455;28;211611;-80
2022/07/19 09:28:14;;;;;;;7.55;1.80;;;37.80;43.40;;;;;;4991008;28;20141;-81
2022/07/19 09:30:44;;;;;;;8.98;2.10;;;37.80;43.50;;;;;;4948693;28;196724;-80
2022/07/19 09:33:14;;;;;;;6.20;1.63;;;38.00;42.80;;;;;;4995931;28;20076;-81
2022/07/19 09:35:44;;;;;;;8.45;1.80;;;38.20;41.40;;;;;;4922257;28;209417;-81
2022/07/19 09:38:30;;;;;;;7.93;1.77;;;38.30;41.60;;;;;;4982526;28;20043;-81
2022/07/19 09:41:16;;;;;;;9.20;1.63;;;38.30;40.90;;;;;;4937872;28;208905;-81
2022/07/19 09:43:58;;;;;;;7.30;1.90;;;38.40;40.20;;;;;;4969269;28;20046;-82
2022/07/19 09:46:40;;;;;;;10.23;2.10;;;38.70;41.70;;;;;;4956188;28;198131;-81
2022/07/19 09:49:14;;;;;;;8.25;1.80;;;39.00;40.70;;;;;;4973482;28;20065;-81
2022/07/19 09:51:46;;;;;;;8.90;1.80;;;39.30;40.10;;;;;;4943564;28;209588;-81
2022/07/19 09:54:17;;;;;;;8.20;1.90;;;39.20;37.90;;;;;;4988481;28;20062;-81
2022/07/19 09:56:45;;;;;;;9.50;1.67;;;39.20;38.30;;;;;;4929988;28;205534;-81
2022/07/19 09:59:12;;;;;;;7.25;1.73;;;39.30;38.50;;;;;;4970897;28;20050;-81
2022/07/19 10:01:39;;;;;;;7.45;1.60;;;39.60;38.30;;;;;;4944540;28;206252;-81
2022/07/19 10:04:12;;;;;;;8.23;1.85;;;39.70;38.90;;;;;;4991455;28;20050;-81
2022/07/19 10:06:40;;;;;;;10.07;1.75;;;39.90;38.40;;;;;;4943618;28;207756;-80
2022/07/19 10:09:09;;;;;;;6.85;1.67;;;40.00;37.30;;;;;;4994715;28;20070;-81
2022/07/19 10:11:36;;;;;;;5.63;1.40;;;40.00;37.20;;;;;;4953797;28;164029;-80
2022/07/19 10:14:03;;;;;;;8.10;1.80;;;39.90;37.80;;;;;;4992162;28;20071;-80
2022/07/19 10:16:53;;;;;;;7.15;1.48;;;39.90;37.70;;;;;;4953718;28;250195;-79
2022/07/19 10:19:42;;;;;;;8.90;1.95;;;40.30;37.60;;;;;;4978887;28;20049;-79
2022/07/19 10:22:17;;;;;;;8.80;1.80;;;40.50;37.10;;;;;;4910396;28;246414;-79
2022/07/19 10:24:46;;;;;;;5.95;1.50;;;40.70;37.10;;;;;;4998202;28;20050;-80
2022/07/19 10:27:18;;;;;;;7.35;1.67;;;40.70;36.10;;;;;;4946562;28;205196;-81
2022/07/19 10:29:45;;;;;;;10.30;1.70;;;40.60;36.90;;;;;;4998081;28;20070;-82
2022/07/19 10:32:13;;;;;;;9.23;1.83;;;40.70;37.10;;;;;;4939052;28;185820;-81
2022/07/19 10:34:40;;;;;;;7.83;1.50;;;40.80;36.70;;;;;;4991608;28;20077;-81
2022/07/19 10:37:07;;;;;;;7.93;1.80;;;40.80;36.20;;;;;;4960686;28;150544;-82
2022/07/19 10:39:38;;;;;;;9.77;1.80;;;40.70;36.30;;;;;;4978575;28;20054;-81
2022/07/19 10:42:23;;;;;;;8.68;1.70;;;40.90;35.60;;;;;;4947484;28;208769;-80
2022/07/19 10:44:59;;;;;;;14.23;3.05;;;41.10;36.30;;;;;;4994412;28;20058;-81
2022/07/19 10:47:31;;;;;;;5.75;1.50;;;41.40;35.80;;;;;;4952278;28;209308;-80
2022/07/19 10:50:16;;;;;;;8.50;2.15;;;41.40;35.70;;;;;;4992314;28;20408;-81
2022/07/19 10:52:43;;;;;;;9.35;1.83;;;41.50;36.20;;;;;;4940596;28;202476;-80
2022/07/19 10:55:23;;;;;;;8.80;1.58;;;41.70;36.50;;;;;;4993720;28;20054;-81
2022/07/19 10:57:51;;;;;;;6.45;1.60;;;41.70;35.30;;;;;;4913081;28;202747;-82
2022/07/19 11:00:27;;;;;;;9.15;1.60;;;42.00;35.70;;;;;;4984384;28;20073;-80
2022/07/19 11:03:12;;;;;;;9.23;1.50;;;42.00;33.60;;;;;;4947872;28;158410;-82
2022/07/19 11:05:47;;;;;;;6.05;1.70;;;41.80;33.90;;;;;;4957004;28;208301;-82
2022/07/19 11:08:14;;;;;;;6.88;1.50;;;41.50;35.20;;;;;;4989405;28;20058;-82
2022/07/19 11:10:40;;;;;;;9.13;1.60;;;41.60;34.70;;;;;;4932998;28;210429;-82
2022/07/19 11:13:09;;;;;;;7.00;1.52;;;41.90;34.70;;;;;;4996590;28;20050;-81
2022/07/19 11:15:35;;;;;;;;;;;42.10;34.30;;;;;;4927820;28;212251;-82
2022/07/19 11:18:06;;;;;;;8.90;1.60;;;42.10;34.40;;;;;;4966176;28;19926;-82
2022/07/19 11:20:35;;;;;;;5.43;1.58;;;41.90;34.50;;;;;;4947315;28;208922;-82
2022/07/19 11:23:03;;;;;;;;;;;41.80;34.90;;;;;;4988202;28;20050;-81
2022/07/19 11:25:39;;;;;;;6.37;1.60;;;41.90;33.60;;;;;;4968332;28;206341;-82
2022/07/19 11:28:08;;;;;;;8.48;1.67;;;41.90;34.90;;;;;;4997153;28;20058;-80
2022/07/19 11:30:35;;;;;;;10.00;1.70;;;42.10;34.70;;;;;;4965649;28;226818;-80
2022/07/19 11:33:04;;;;;;;9.10;2.03;;;42.00;34.60;;;;;;5003722;28;20068;-82
2022/07/19 11:35:31;;;;;;;5.88;1.60;;;41.90;34.60;;;;;;4943442;28;209370;-81
2022/07/19 11:38:00;;;;;;;10.02;1.80;;;41.50;33.80;;;;;;4950258;28;20051;-82
2022/07/19 11:40:35;;;;;;;12.20;1.60;;;41.10;32.70;;;;;;4948183;28;208104;-83
2022/07/19 11:43:06;;;;;;;6.72;1.45;;;40.90;33.40;;;;;;4982785;28;189321;-82
2022/07/19 11:45:44;;;;;;;6.95;1.50;;;40.80;33.10;;;;;;4950939;28;199927;-82
2022/07/19 11:48:10;;;;;;;10.43;1.50;;;40.70;34.30;;;;;;4975776;28;20046;-82
2022/07/19 11:50:40;;;;;;;7.75;1.48;;;40.90;34.00;;;;;;4934181;28;213558;-81
2022/07/19 11:53:07;;;;;;;12.90;1.70;;;41.30;34.20;;;;;;4972177;28;20082;-81
2022/07/19 11:55:37;;;;;;;8.30;1.85;;;41.90;34.00;;;;;;4943961;28;217879;-82
2022/07/19 11:58:09;;;;;;;6.97;1.40;;;42.30;35.00;;;;;;4972900;28;20412;-82
2022/07/19 12:00:35;;;;;;;8.50;1.50;;;42.80;34.40;;;;;;4953211;28;205943;-82
2022/07/19 12:03:06;;;;;;;8.45;1.70;;;43.00;33.90;;;;;;4985536;28;20379;-81
2022/07/19 12:05:37;;;;;;;7.95;1.73;;;43.20;33.30;;;;;;4939954;28;221014;-83
2022/07/19 12:08:06;;;;;;;8.38;1.70;;;43.10;32.40;;;;;;4983083;28;20050;-82
2022/07/19 12:10:38;;;;;;;7.73;1.50;;;43.00;32.50;;;;;;4953800;28;213360;-82
2022/07/19 12:13:08;;;;;;;7.43;1.65;;;43.00;32.70;;;;;;4978257;28;20049;-82
2022/07/19 12:15:53;;;;;;;10.82;1.83;;;42.70;33.10;;;;;;4945813;28;204970;-82
2022/07/19 12:18:41;;;;;;;7.05;1.55;;;42.70;32.70;;;;;;4971011;28;20522;-82
2022/07/19 12:21:35;;;;;;;10.07;1.70;;;42.00;32.00;;;;;;4950343;28;211759;-81
2022/07/19 12:24:20;;;;;;;8.65;1.58;;;41.90;33.20;;;;;;4969927;28;20043;-83
2022/07/19 12:26:57;;;;;;;10.30;1.65;;;42.10;33.40;;;;;;4935867;28;205660;-83
2022/07/19 12:29:25;;;;;;;8.55;1.80;;;42.40;32.10;;;;;;4969823;28;20392;-81
2022/07/19 12:31:55;;;;;;;5.93;1.50;;;42.70;32.90;;;;;;4931684;28;205769;-81
2022/07/19 12:34:21;;;;;;;9.75;1.90;;;42.40;32.90;;;;;;4988849;28;20054;-82
2022/07/19 12:36:51;;;;;;;8.52;1.30;;;42.20;32.80;;;;;;4953268;28;130605;-82
2022/07/19 12:39:28;;;;;;;7.30;1.60;;;42.10;33.20;;;;;;4965600;28;20051;-81
2022/07/19 12:42:02;;;;;;;9.05;1.60;;;42.10;33.10;;;;;;4952019;28;213001;-81
2022/07/19 12:44:29;;;;;;;13.95;1.67;;;42.30;32.70;;;;;;4974658;28;20388;-81
2022/07/19 12:46:56;;;;;;;6.97;1.50;;;42.70;33.00;;;;;;4944763;28;199459;-80
2022/07/19 12:49:23;;;;;;;9.10;1.50;;;42.80;31.00;;;;;;4990250;28;20058;-81